Whitehouse, OH

2:37 AM EDT on October 31, 2014 (GMT -0400)
Yawberg Rd. | Change Station
CLOSE
Current Station
Personal Weather Station
Location: Whitehouse, OH
Elevation: 661 ft
Nearby Weather Stations

Elev 661 ft 41.50 °N, 83.84 °W | Updated 2 minutes ago

Overcast
Overcast
51.2 °F
Feels Like 51.2 °F
N
0.0
Wind Variable Wind from ESE
Gusts 0.0 mph

Today
High -- | Low -- °F
--% Chance of Precip.
Yesterday
High -- | Low -- °F
Precip. -- in
8:05 AM 6:31 PM
First Quarter, 52% visible
Pressure 30.01 in
Visibility 10.0 miles
Clouds Overcast 5000 ft
Dew Point 35 °F
Humidity 53%
Rainfall 0.00 in
Snow Depth Not available.
UV 0 out of 12
Pollen .20 out of 12
Air Quality Not available.
Flu Activity Not available.
METAR KTOL 310552Z 24005KT 10SM OVC050 07/01 A3000 RMK AO2 SLP162 T00720011 10083 20067 56013

More Conditions Fewer Conditions

Pressure 30.01 in
Visibility 10.0 miles
Clouds Overcast 5000 ft
Dew Point 35 °F
Humidity 53%
Rainfall 0.00 in
Snow Depth Not available.
UV 0 out of 12
Pollen .20 out of 12
Air Quality Not available.
Flu Activity Not available.
METAR KTOL 310552Z 24005KT 10SM OVC050 07/01 A3000 RMK AO2 SLP162 T00720011 10083 20067 56013

More Conditions Fewer Conditions

10-Day Weather Forecast

Almanac

Astronomy

Oct. 31, 2014 Rise Set
Actual Time
Civil Twilight
Nautical Twilight
Astronomical Twilight
Moon
Length of Visible Light
Length of Day
Tomorrow will be .
, % of the Moon is Illuminated

Today's Extremes

State Highs State Lows

Community

WunderPhotos

Upload Photos

1,766,571 photos uploaded!

WunderBlogs® & News

Nearby

Air Quality

  Air Quality AQ Index Pollutant
Not available.

Snow Depth

Station Depth Elevation

Earthquake Activity

City Distance Mag. Time & Date
Minimum magnitude displayed is 2.5.

Coastal Water Temperatures

Place Temperature

Nearby Weather Stations